Time;durP1;ratioP1;P1;durP2;ratioP2;P2;SDS_P1;SDS_P2;PMS_P1;PMS_P2;Temp;Humidity;BMP_temperature;BMP_pressure;BME280_temperature;BME280_humidity;BME280_pressure;Samples;Min_cycle;Max_cycle;Signal;HPM_P1;HPM_P2
2022/08/18 08:10:03;;;;;;;7.95;4.88;;;;;;;30.93;39.61;99949.78;4944667;28;20054;-71
2022/08/18 08:12:54;;;;;;;15.48;5.47;;;;;;;31.02;37.40;99941.28;4943155;28;20485;-71
2022/08/18 08:15:56;;;;;;;5.65;4.35;;;;;;;31.09;42.09;99937.38;4944284;28;20043;-71
2022/08/18 08:18:21;;;;;;;9.18;4.63;;;;;;;31.20;39.58;99927.88;4924838;28;20031;-71
2022/08/18 08:20:57;;;;;;;6.07;4.07;;;;;;;31.29;37.40;99924.66;4939159;28;20023;-70
2022/08/18 08:23:47;;;;;;;7.10;4.57;;;;;;;31.50;37.17;99929.69;4941881;28;20023;-70
2022/08/18 08:26:30;;;;;;;6.85;4.20;;;;;;;31.54;37.96;99939.22;4941749;28;20170;-69
2022/08/18 08:29:46;;;;;;;8.43;4.80;;;;;;;31.61;37.23;99937.91;4941723;28;20031;-70
2022/08/18 08:32:36;;;;;;;9.82;4.47;;;;;;;31.68;38.01;99930.44;4941692;28;20089;-70
2022/08/18 08:35:11;;;;;;;11.85;4.65;;;;;;;31.72;35.04;99927.50;4941580;28;20035;-70
2022/08/18 08:37:43;;;;;;;6.95;4.30;;;;;;;31.81;35.95;99930.56;4941502;28;20063;-70
2022/08/18 08:40:21;;;;;;;4.95;4.00;;;;;;;31.75;35.39;99897.09;4941425;28;20027;-71
2022/08/18 08:42:57;;;;;;;9.43;4.47;;;;;;;31.95;37.66;99919.88;4942343;28;20042;-71
2022/08/18 08:45:31;;;;;;;8.55;4.70;;;;;;;32.05;35.51;99897.03;4939231;28;20122;-70
2022/08/18 08:48:16;;;;;;;6.95;4.63;;;;;;;32.26;36.42;99916.22;4940072;28;20084;-70
2022/08/18 08:50:50;;;;;;;6.05;4.00;;;;;;;32.22;34.39;99913.84;4923925;28;20046;-73
2022/08/18 08:53:31;;;;;;;5.97;4.15;;;;;;;32.29;34.58;99923.19;4941565;28;20035;-73
2022/08/18 08:56:00;;;;;;;6.43;4.43;;;;;;;32.43;34.83;99920.47;4940993;28;20093;-73
2022/08/18 08:58:29;;;;;;;5.18;4.05;;;;;;;32.46;34.95;99906.06;4941593;28;20031;-73
2022/08/18 09:00:56;;;;;;;7.30;4.22;;;;;;;32.58;36.50;99915.13;4949274;28;20024;-73
2022/08/18 09:03:30;;;;;;;6.07;4.30;;;;;;;32.68;36.84;99908.22;4932039;29;20498;-74
2022/08/18 09:05:58;;;;;;;8.13;4.60;;;;;;;32.80;37.56;99911.09;4930737;28;20035;-73
2022/08/18 09:08:30;;;;;;;11.50;4.90;;;;;;;32.93;33.70;99903.13;4940450;28;20042;-73
2022/08/18 09:11:17;;;;;;;5.18;4.38;;;;;;;33.08;32.72;99909.28;4941509;28;20485;-73
2022/08/18 09:14:09;;;;;;;13.18;5.05;;;;;;;33.26;34.92;99901.84;4948174;28;20033;-72
2022/08/18 09:17:02;;;;;;;7.68;4.60;;;;;;;33.24;33.06;99880.53;4947084;28;20122;-73
2022/08/18 09:19:52;;;;;;;5.53;4.25;;;;;;;33.45;32.81;99904.16;4949983;28;20035;-73
2022/08/18 09:22:53;;;;;;;6.38;4.55;;;;;;;33.57;33.75;99905.97;4950129;28;20103;-73
2022/08/18 09:25:31;;;;;;;6.82;4.57;;;;;;;33.64;32.97;99906.44;4950009;28;20436;-74
2022/08/18 09:28:26;;;;;;;6.55;4.60;;;;;;;33.71;32.62;99897.03;4949915;28;20035;-73
2022/08/18 09:31:01;;;;;;;6.05;4.63;;;;;;;33.77;32.12;99893.06;4948231;28;20043;-73
2022/08/18 09:33:33;;;;;;;8.23;4.88;;;;;;;33.77;32.00;99882.34;4949714;28;20039;-74
2022/08/18 09:36:07;;;;;;;11.85;4.82;;;;;;;33.82;33.20;99897.16;4949568;28;20034;-74
2022/08/18 09:41:32;;;;;;;8.13;4.65;;;;;;;33.96;31.57;99880.13;4930488;28;20094;-73
2022/08/18 09:44:08;;;;;;;7.68;4.75;;;;;;;34.03;30.81;99859.09;4930394;28;20031;-73
2022/08/18 09:46:40;;;;;;;6.05;4.55;;;;;;;34.38;30.17;99879.00;4928902;28;20042;-73
2022/08/18 09:49:45;;;;;;;15.10;5.72;;;;;;;34.51;30.25;99885.19;4930301;28;20027;-73
2022/08/18 09:52:19;;;;;;;8.35;4.88;;;;;;;34.20;31.93;99887.38;4889980;28;20040;-73
2022/08/18 09:54:57;;;;;;;7.28;4.68;;;;;;;34.19;31.42;99874.94;4890499;28;20591;-73
2022/08/18 09:57:26;;;;;;;10.00;4.90;;;;;;;34.42;30.60;99872.44;4889858;28;20138;-73
2022/08/18 09:59:58;;;;;;;7.65;4.22;;;;;;;34.55;30.82;99875.09;4889960;28;20116;-72
2022/08/18 10:02:29;;;;;;;10.55;4.85;;;;;;;34.63;30.92;99875.38;4888604;28;20299;-73
2022/08/18 10:05:19;;;;;;;7.13;4.80;;;;;;;34.67;31.38;99842.03;4971259;28;20175;-74
2022/08/18 10:08:02;;;;;;;11.13;4.90;;;;;;;34.60;29.98;99873.78;4886012;28;20041;-73
2022/08/18 10:10:40;;;;;;;8.60;5.03;;;;;;;34.76;31.76;99868.16;4912712;28;20068;-74
2022/08/18 10:13:35;;;;;;;5.55;4.50;;;;;;;34.95;29.90;99864.13;4928760;28;20484;-73
2022/08/18 10:16:20;;;;;;;9.38;5.65;;;;;;;35.06;30.99;99868.69;4954429;28;20121;-73
2022/08/18 10:19:11;;;;;;;6.20;4.88;;;;;;;34.96;30.01;99865.84;4950122;28;20037;-73
2022/08/18 10:21:57;;;;;;;7.95;4.43;;;;;;;34.90;29.85;99848.38;4961177;28;20046;-73
2022/08/18 10:24:32;;;;;;;7.65;5.00;;;;;;;35.05;30.58;99858.94;4960930;28;20504;-73
2022/08/18 10:27:01;;;;;;;10.98;5.60;;;;;;;35.30;30.22;99869.50;4948547;28;20144;-73
2022/08/18 10:29:27;;;;;;;7.80;4.70;;;;;;;35.32;29.02;99866.69;4900310;28;20033;-73
2022/08/18 10:31:55;;;;;;;8.75;5.22;;;;;;;35.44;29.72;99862.22;4902520;28;20036;-73
2022/08/18 10:34:40;;;;;;;11.38;5.05;;;;;;;35.51;29.29;99868.84;4896222;28;20062;-72
2022/08/18 10:37:29;;;;;;;7.38;4.45;;;;;;;35.63;29.38;99861.66;4898723;28;20042;-73
2022/08/18 10:39:58;;;;;;;;;;;;;;;35.77;29.13;99871.31;4911169;28;20040;-73
2022/08/18 10:42:28;;;;;;;7.05;3.95;;;;;;;35.85;27.00;99847.38;4902557;28;19923;-73
2022/08/18 10:45:05;;;;;;;6.97;4.60;;;;;;;36.14;26.84;99859.50;4950700;28;20041;-73
2022/08/18 10:47:30;;;;;;;8.82;5.00;;;;;;;36.22;28.01;99841.78;4902882;28;20118;-76
2022/08/18 10:50:00;;;;;;;7.10;4.68;;;;;;;36.35;27.93;99844.34;4900557;28;20127;-74
2022/08/18 10:52:35;;;;;;;10.90;4.85;;;;;;;35.91;27.36;99857.66;4901754;28;20040;-75
2022/08/18 10:55:12;;;;;;;6.38;4.32;;;;;;;35.59;27.67;99863.75;4900107;28;20047;-75
2022/08/18 10:58:00;;;;;;;7.90;4.45;;;;;;;35.83;28.06;99860.09;4907347;28;20071;-72
2022/08/18 11:00:55;;;;;;;9.82;4.55;;;;;;;35.77;28.18;99842.63;4940922;28;20042;-73
2022/08/18 11:03:31;;;;;;;7.32;4.82;;;;;;;35.81;28.07;99848.59;5009265;28;20152;-73
2022/08/18 11:06:05;;;;;;;14.05;4.43;;;;;;;35.49;28.00;99853.81;5010140;28;20042;-73
2022/08/18 11:08:40;;;;;;;7.88;4.00;;;;;;;35.50;27.86;99845.66;5009941;28;20147;-73
2022/08/18 11:11:08;;;;;;;9.20;4.25;;;;;;;35.85;29.19;99839.31;5009977;28;20053;-73
2022/08/18 11:14:00;;;;;;;10.68;4.38;;;;;;;35.94;26.53;99809.09;5008453;28;20030;-73
2022/08/18 11:16:38;;;;;;;8.02;4.07;;;;;;;35.86;27.79;99846.41;5007337;28;20041;-75
2022/08/18 11:19:09;;;;;;;7.00;4.40;;;;;;;35.85;27.25;99839.31;5009888;28;20026;-76
2022/08/18 11:21:38;;;;;;;6.40;4.10;;;;;;;36.01;27.22;99844.38;5009842;28;20508;-76
2022/08/18 11:24:14;;;;;;;5.63;4.15;;;;;;;36.18;28.05;99837.63;5009932;28;20036;-76
2022/08/18 11:26:47;;;;;;;12.25;4.53;;;;;;;36.06;28.82;99817.13;5008512;28;20147;-78
2022/08/18 11:29:25;;;;;;;7.75;4.20;;;;;;;36.23;26.21;99840.81;5009373;28;20080;-72
2022/08/18 11:32:05;;;;;;;6.57;4.25;;;;;;;36.35;25.65;99832.72;5008034;28;20124;-74
2022/08/18 11:34:38;;;;;;;5.88;4.38;;;;;;;36.42;26.66;99833.97;5007174;28;20569;-78
2022/08/18 11:37:10;;;;;;;6.03;4.28;;;;;;;36.21;26.32;99807.81;5007066;28;20483;-78
2022/08/18 11:39:46;;;;;;;7.40;5.05;;;;;;;36.37;26.36;99830.81;5000467;28;20496;-74
2022/08/18 11:42:14;;;;;;;7.25;4.07;;;;;;;36.24;26.72;99822.84;4942783;28;20051;-72
2022/08/18 11:44:40;;;;;;;9.80;4.75;;;;;;;36.26;27.26;99819.06;4950632;28;20031;-73
2022/08/18 11:47:17;;;;;;;6.22;4.60;;;;;;;36.27;25.69;99817.22;4943930;28;20031;-71
2022/08/18 11:50:07;;;;;;;9.93;5.28;;;;;;;36.44;27.33;99807.81;4947957;28;20035;-73
2022/08/18 11:52:47;;;;;;;11.88;5.10;;;;;;;36.36;27.57;99815.63;4950936;28;20374;-71
2022/08/18 11:55:26;;;;;;;9.25;5.13;;;;;;;36.57;26.90;99800.41;4948771;28;20050;-73
2022/08/18 11:57:54;;;;;;;7.57;4.80;;;;;;;36.23;26.09;99783.53;4948929;28;20035;-72
2022/08/18 12:00:52;;;;;;;7.80;5.05;;;;;;;36.01;26.11;99789.78;4950195;28;20118;-72
2022/08/18 12:03:39;;;;;;;7.18;4.95;;;;;;;35.98;26.70;99804.31;4950184;28;20114;-73
2022/08/18 12:06:26;;;;;;;10.82;5.00;;;;;;;36.32;26.96;99793.50;4948624;28;20035;-71
2022/08/18 12:09:17;;;;;;;9.23;5.30;;;;;;;36.65;27.54;99796.25;4950293;28;20035;-73
2022/08/18 12:12:00;;;;;;;8.18;4.82;;;;;;;36.78;25.51;99791.53;4948753;28;20516;-72
2022/08/18 12:14:28;;;;;;;6.80;5.00;;;;;;;36.57;26.69;99776.22;4922028;28;20078;-72
2022/08/18 12:16:54;;;;;;;6.55;5.07;;;;;;;36.46;26.14;99786.19;4937267;28;20798;-72
2022/08/18 12:19:21;;;;;;;10.50;5.40;;;;;;;36.61;27.10;99782.19;4943568;28;20158;-73
2022/08/18 12:21:52;;;;;;;8.85;4.88;;;;;;;36.82;27.40;99792.97;4939393;28;20027;-73
2022/08/18 12:24:24;;;;;;;10.43;5.68;;;;;;;36.86;27.89;99786.41;4939632;28;20040;-72
2022/08/18 12:26:51;;;;;;;7.70;5.00;;;;;;;36.72;26.45;99778.59;4940808;28;20023;-73
2022/08/18 12:29:17;;;;;;;7.90;5.30;;;;;;;36.88;26.36;99781.72;4939123;28;20035;-73
2022/08/18 12:31:44;;;;;;;7.85;4.90;;;;;;;36.47;25.74;99777.97;4933455;28;20034;-72
2022/08/18 12:34:10;;;;;;;5.28;4.53;;;;;;;36.63;27.58;99766.78;4940084;28;20031;-72
2022/08/18 12:36:39;;;;;;;8.70;4.93;;;;;;;36.89;27.34;99774.53;4938729;28;20054;-73
2022/08/18 12:39:05;;;;;;;8.07;5.65;;;;;;;37.07;26.32;99774.78;4940115;28;20118;-71
2022/08/18 12:41:30;;;;;;;6.97;4.85;;;;;;;37.06;25.86;99782.00;4930055;28;20130;-71
2022/08/18 12:43:56;;;;;;;8.77;4.90;;;;;;;36.72;26.00;99784.00;4929927;28;20031;-73
2022/08/18 12:46:22;;;;;;;7.75;5.00;;;;;;;36.83;25.08;99777.72;4929801;28;20024;-72
2022/08/18 12:48:48;;;;;;;8.25;5.18;;;;;;;37.09;24.67;99778.19;4929875;28;20042;-72
2022/08/18 12:51:13;;;;;;;7.28;5.38;;;;;;;37.07;24.15;99772.09;4929698;28;20061;-72
2022/08/18 12:53:40;;;;;;;8.13;5.00;;;;;;;36.97;24.48;99763.13;4930238;28;20115;-71
2022/08/18 12:56:23;;;;;;;7.28;5.03;;;;;;;36.72;25.08;99767.84;4947694;28;20054;-72
2022/08/18 12:58:49;;;;;;;6.60;4.68;;;;;;;36.29;26.35;99729.28;5014737;28;20054;-71
2022/08/18 13:01:17;;;;;;;6.30;4.90;;;;;;;36.62;27.29;99756.19;4949954;28;20031;-71
2022/08/18 13:03:44;;;;;;;13.18;5.13;;;;;;;36.57;26.78;99756.56;4949905;28;20092;-72
2022/08/18 13:06:10;;;;;;;9.52;5.25;;;;;;;36.86;26.19;99764.88;4938629;28;20035;-71
2022/08/18 13:08:36;;;;;;;7.45;4.97;;;;;;;36.86;26.39;99759.50;4928880;28;20031;-70
2022/08/18 13:11:02;;;;;;;8.40;4.97;;;;;;;36.84;25.37;99761.44;4929609;28;20417;-70
2022/08/18 13:13:27;;;;;;;8.98;5.00;;;;;;;36.84;26.02;99750.69;4936994;28;20039;-69
2022/08/18 13:15:54;;;;;;;7.43;4.72;;;;;;;36.95;26.55;99767.75;4949294;28;20024;-69
2022/08/18 13:18:19;;;;;;;8.77;4.90;;;;;;;36.96;24.95;99769.47;4949145;28;20039;-70
2022/08/18 13:20:45;;;;;;;8.07;5.43;;;;;;;37.10;26.67;99760.22;4949048;28;20030;-70
2022/08/18 13:23:10;;;;;;;7.20;5.30;;;;;;;37.16;25.41;99765.94;4948882;28;20037;-70
2022/08/18 13:25:37;;;;;;;7.80;5.00;;;;;;;37.23;25.04;99767.09;4948870;28;20027;-71
2022/08/18 13:28:04;;;;;;;10.32;4.75;;;;;;;37.39;24.10;99758.56;4948876;28;20050;-70
2022/08/18 13:30:30;;;;;;;6.65;4.85;;;;;;;37.47;24.90;99763.25;4948556;28;20489;-70
2022/08/18 13:32:56;;;;;;;7.03;4.90;;;;;;;37.45;25.67;99751.78;4948994;28;20062;-70
2022/08/18 13:35:21;;;;;;;8.32;5.03;;;;;;;37.38;25.41;99743.38;4948899;28;20118;-69
2022/08/18 13:37:47;;;;;;;7.50;5.35;;;;;;;37.39;25.03;99757.72;4943057;28;20477;-68
2022/08/18 13:40:13;;;;;;;6.40;5.32;;;;;;;37.07;25.09;99766.72;4948738;28;20031;-68
2022/08/18 13:42:47;;;;;;;7.85;4.97;;;;;;;36.68;24.47;99769.09;4949529;28;20024;-72
2022/08/18 13:45:16;;;;;;;6.60;4.88;;;;;;;36.69;25.69;99768.97;4949387;28;20169;-70
2022/08/18 13:47:43;;;;;;;;;;;;;;;36.83;25.68;99762.41;4952257;28;20492;-69
2022/08/18 13:50:10;;;;;;;8.85;5.07;;;;;;;36.98;25.57;99762.13;4952735;28;19921;-69
2022/08/18 13:52:36;;;;;;;7.60;4.70;;;;;;;36.97;24.12;99755.88;4952495;28;20027;-70
2022/08/18 13:55:04;;;;;;;9.43;4.97;;;;;;;37.03;24.54;99757.22;4952695;28;20385;-68
2022/08/18 13:57:30;;;;;;;7.45;5.10;;;;;;;37.10;24.86;99763.78;4952595;28;20032;-72
2022/08/18 13:59:56;;;;;;;8.50;5.10;;;;;;;37.03;24.72;99766.13;4952434;28;20031;-69
2022/08/18 14:02:22;;;;;;;7.25;4.88;;;;;;;36.80;24.88;99732.22;4952620;28;20031;-70
2022/08/18 14:04:48;;;;;;;7.95;4.60;;;;;;;36.37;23.87;99747.47;4952961;28;20180;-67
2022/08/18 14:07:16;;;;;;;6.82;4.90;;;;;;;36.65;25.06;99754.09;4952645;28;20477;-70
2022/08/18 14:09:42;;;;;;;8.20;5.30;;;;;;;36.87;25.07;99757.66;4952700;28;20076;-71
2022/08/18 14:12:16;;;;;;;6.95;4.95;;;;;;;36.98;24.59;99748.69;4952392;28;20051;-69
2022/08/18 14:14:42;;;;;;;6.32;5.18;;;;;;;37.02;25.52;99744.72;4952402;28;20048;-68
2022/08/18 14:17:08;;;;;;;8.32;5.20;;;;;;;37.00;24.81;99750.25;4952097;28;20482;-66
2022/08/18 14:27:46;;;;;;;6.80;5.10;;;;;;;36.96;25.35;99740.72;4951969;28;20512;-70
2022/08/18 14:30:13;;;;;;;6.55;4.82;;;;;;;36.68;25.17;99729.59;4951725;28;20047;-68
2022/08/18 14:32:39;;;;;;;7.13;5.63;;;;;;;36.63;25.15;99755.19;4952334;28;20166;-71
2022/08/18 14:35:07;;;;;;;6.15;5.25;;;;;;;36.52;25.22;99750.72;4951587;28;20038;-74
2022/08/18 14:37:33;;;;;;;7.73;5.07;;;;;;;36.67;26.18;99749.41;4952137;28;20057;-71
2022/08/18 14:39:58;;;;;;;7.18;5.40;;;;;;;36.61;24.07;99743.72;4952300;28;20556;-70
2022/08/18 14:42:24;;;;;;;8.50;5.38;;;;;;;36.60;24.74;99734.78;4952432;28;20035;-69
2022/08/18 14:44:50;;;;;;;9.30;5.00;;;;;;;36.51;24.19;99749.84;4951251;28;20031;-69
2022/08/18 14:47:16;;;;;;;8.27;5.53;;;;;;;36.52;24.27;99743.50;4951555;28;20038;-72
2022/08/18 14:49:42;;;;;;;7.38;5.30;;;;;;;36.53;24.60;99742.50;4951289;28;20054;-70
2022/08/18 14:52:10;;;;;;;7.93;4.85;;;;;;;36.55;25.63;99739.69;4943014;29;20484;-70
2022/08/18 14:54:36;;;;;;;7.88;5.53;;;;;;;36.54;25.22;99738.84;4941034;28;20032;-69
2022/08/18 14:57:03;;;;;;;7.18;5.10;;;;;;;36.51;24.84;99722.97;4932849;29;20416;-69
2022/08/18 14:59:48;;;;;;;9.45;5.53;;;;;;;36.31;24.49;99734.50;4978423;28;20249;-70
2022/08/18 15:02:13;;;;;;;6.72;5.18;;;;;;;36.36;24.82;99729.59;4986469;28;20568;-71
2022/08/18 15:04:39;;;;;;;7.00;5.47;;;;;;;36.27;24.59;99705.19;4991277;28;20049;-70
2022/08/18 15:07:05;;;;;;;10.38;5.95;;;;;;;36.36;25.12;99710.78;4990821;28;20026;-70
2022/08/18 15:09:31;;;;;;;10.73;5.85;;;;;;;36.43;25.48;99733.53;4990447;28;20125;-70
2022/08/18 15:11:59;;;;;;;10.55;6.15;;;;;;;36.38;24.98;99735.75;4990413;28;20042;-66
2022/08/18 15:14:27;;;;;;;9.00;5.40;;;;;;;36.33;25.41;99728.03;4973879;28;20042;-69
2022/08/18 15:16:53;;;;;;;8.73;5.60;;;;;;;36.37;26.07;99731.34;4983827;28;20129;-66
2022/08/18 15:19:21;;;;;;;7.63;5.75;;;;;;;36.34;25.64;99732.44;4980443;28;20052;-78
2022/08/18 15:27:16;;;;;;;8.23;5.93;;;;;;;36.43;26.06;99733.53;4981752;28;20041;-70
2022/08/18 15:29:41;;;;;;;7.57;5.78;;;;;;;36.48;25.47;99722.38;4980239;28;20034;-72
2022/08/18 15:32:07;;;;;;;7.32;6.00;;;;;;;36.45;26.15;99726.16;4980928;28;20114;-76
2022/08/18 15:34:34;;;;;;;9.10;5.85;;;;;;;36.49;25.88;99724.06;4982578;28;20508;-75
2022/08/18 15:37:00;;;;;;;8.63;5.55;;;;;;;36.39;25.66;99721.28;4960800;28;20124;-76
2022/08/18 15:39:26;;;;;;;6.88;5.32;;;;;;;36.31;25.30;99729.13;4939449;28;20058;-72
2022/08/18 15:41:52;;;;;;;8.40;5.30;;;;;;;36.35;26.36;99725.19;4947215;28;20043;-72
2022/08/18 15:44:20;;;;;;;10.93;5.60;;;;;;;36.28;25.79;99723.03;4951081;28;20035;-74
2022/08/18 15:46:47;;;;;;;11.60;5.82;;;;;;;36.34;27.64;99720.81;4936333;28;20030;-77
2022/08/18 15:49:13;;;;;;;12.38;5.93;;;;;;;36.33;26.63;99721.81;4943224;28;20031;-73
2022/08/18 15:51:41;;;;;;;7.13;5.35;;;;;;;36.14;25.97;99703.66;4950710;28;20034;-75
2022/08/18 15:54:08;;;;;;;13.48;5.72;;;;;;;36.20;26.15;99722.81;4950888;28;20485;-73
2022/08/18 15:56:35;;;;;;;12.88;5.32;;;;;;;36.22;26.71;99720.84;4950862;28;20023;-72
2022/08/18 15:59:05;;;;;;;10.73;5.65;;;;;;;36.02;26.44;99721.66;4950618;28;20032;-74
2022/08/18 16:01:35;;;;;;;12.18;5.53;;;;;;;36.04;27.93;99725.06;4949305;28;20031;-72
2022/08/18 16:04:01;;;;;;;;;;;;;;;35.98;27.51;99729.13;4941782;28;20027;-72
2022/08/18 16:06:27;;;;;;;6.35;5.72;;;;;;;35.99;26.94;99727.28;4930858;28;19927;-74
2022/08/18 16:08:53;;;;;;;8.13;5.90;;;;;;;35.97;26.78;99722.03;4930733;28;20382;-75
2022/08/18 16:11:19;;;;;;;9.00;5.63;;;;;;;35.98;28.42;99725.56;4930648;28;20056;-73
2022/08/18 16:13:48;;;;;;;13.80;5.72;;;;;;;35.91;28.49;99728.75;4929764;28;20501;-73
2022/08/18 16:16:17;;;;;;;17.13;5.67;;;;;;;35.84;28.51;99724.84;4930617;28;20031;-73
2022/08/18 16:18:44;;;;;;;14.63;6.60;;;;;;;35.81;27.53;99730.44;4930867;28;20103;-74
2022/08/18 16:21:12;;;;;;;13.07;6.00;;;;;;;35.57;28.27;99711.81;4937307;28;20069;-74
2022/08/18 16:23:38;;;;;;;9.25;5.70;;;;;;;35.49;27.36;99723.13;4999129;28;20452;-74
2022/08/18 16:26:05;;;;;;;8.20;6.07;;;;;;;35.44;28.15;99730.72;4949865;28;20051;-71
2022/08/18 16:28:32;;;;;;;10.10;5.85;;;;;;;35.37;28.48;99732.16;4950063;28;20477;-74
2022/08/18 16:30:58;;;;;;;8.07;5.80;;;;;;;35.18;28.28;99722.88;4949944;28;20126;-67
2022/08/18 16:33:24;;;;;;;9.45;6.25;;;;;;;35.17;28.38;99736.38;4946547;28;20173;-73
2022/08/18 16:35:50;;;;;;;9.65;6.00;;;;;;;34.99;28.64;99737.72;4930031;28;20039;-75
2022/08/18 16:38:17;;;;;;;11.80;6.55;;;;;;;34.89;29.22;99739.38;4948620;28;20055;-69
2022/08/18 16:40:42;;;;;;;9.15;6.15;;;;;;;34.77;29.01;99748.34;4949888;28;20038;-73
2022/08/18 16:43:10;;;;;;;10.32;6.35;;;;;;;34.69;29.35;99732.00;4949891;28;20035;-70
2022/08/18 16:45:36;;;;;;;8.25;6.50;;;;;;;34.71;29.79;99735.41;4949548;28;20507;-72
2022/08/18 16:48:01;;;;;;;8.73;6.50;;;;;;;34.66;29.98;99735.78;4950094;28;20035;-72
2022/08/18 16:50:28;;;;;;;13.25;7.57;;;;;;;34.65;30.00;99742.94;4945331;28;20059;-71
2022/08/18 16:52:54;;;;;;;9.82;6.93;;;;;;;34.64;29.80;99745.75;4932133;28;20616;-74
2022/08/18 16:55:20;;;;;;;10.07;6.70;;;;;;;34.66;29.79;99750.00;4950006;28;20031;-71
2022/08/18 17:06:16;;;;;;;8.60;6.78;;;;;;;34.52;29.58;99752.91;4949619;28;20039;-71
2022/08/18 17:08:42;;;;;;;10.65;7.20;;;;;;;34.51;29.76;99751.19;4947564;28;20031;-73
2022/08/18 17:11:13;;;;;;;8.07;6.38;;;;;;;34.46;29.50;99754.19;4935835;28;20040;-71
2022/08/18 17:13:40;;;;;;;10.52;6.40;;;;;;;34.40;29.88;99759.19;4945944;28;20523;-70
2022/08/18 17:16:09;;;;;;;9.57;6.60;;;;;;;34.37;29.96;99759.38;4949618;28;20042;-68
2022/08/18 17:18:35;;;;;;;;;;;;;;;34.43;30.21;99769.66;4949833;28;20019;-70
2022/08/18 17:21:07;;;;;;;12.02;7.10;;;;;;;34.50;30.13;99761.03;4948558;28;20351;-70
2022/08/18 17:23:33;;;;;;;12.40;6.70;;;;;;;34.53;30.26;99751.06;4949668;28;20023;-71
2022/08/18 17:26:00;;;;;;;21.98;7.30;;;;;;;34.56;30.94;99765.09;4949342;28;20027;-71
2022/08/18 17:28:38;;;;;;;12.23;7.00;;;;;;;34.56;31.46;99772.25;4942826;28;20023;-71
2022/08/18 17:31:05;;;;;;;15.60;7.00;;;;;;;34.47;31.69;99771.13;4932704;28;20117;-72
2022/08/18 17:33:34;;;;;;;16.17;6.85;;;;;;;34.35;33.23;99778.28;4937672;28;20109;-72
2022/08/18 17:36:04;;;;;;;14.88;7.40;;;;;;;34.29;33.58;99776.00;4949242;28;20106;-72
2022/08/18 17:38:57;;;;;;;16.20;8.13;;;;;;;34.15;34.44;99774.34;4949416;28;20140;-73
2022/08/18 17:41:24;;;;;;;14.48;6.97;;;;;;;34.08;35.25;99778.44;4935767;28;20077;-74
2022/08/18 17:43:51;;;;;;;17.80;7.57;;;;;;;33.89;36.10;99782.44;4948882;28;20036;-72
2022/08/18 17:46:27;;;;;;;18.50;7.63;;;;;;;33.79;35.62;99787.56;4949032;28;20072;-72
2022/08/18 17:49:12;;;;;;;28.80;8.20;;;;;;;33.67;34.64;99778.59;4949249;28;20066;-70
2022/08/18 17:51:46;;;;;;;21.92;7.47;;;;;;;33.62;35.37;99779.88;4949245;28;20558;-71
2022/08/18 17:54:18;;;;;;;18.35;7.57;;;;;;;33.62;34.48;99791.47;4949682;28;20038;-73
2022/08/18 17:56:55;;;;;;;16.63;6.97;;;;;;;33.59;34.55;99791.66;4949062;28;20074;-76
2022/08/18 17:59:51;;;;;;;18.40;6.90;;;;;;;33.57;33.89;99793.56;4949139;28;20493;-72
2022/08/18 18:02:25;;;;;;;19.27;7.40;;;;;;;33.42;38.72;99802.69;4908642;28;20665;-72
2022/08/18 18:04:51;;;;;;;13.00;6.93;;;;;;;33.33;38.72;99812.22;4907777;28;20040;-75
2022/08/18 18:07:53;;;;;;;14.65;7.03;;;;;;;32.88;38.44;99793.81;4908030;29;20044;-72
2022/08/18 18:10:28;;;;;;;13.80;6.78;;;;;;;32.53;38.84;99813.88;4950482;28;20047;-72
2022/08/18 18:13:32;;;;;;;18.48;7.55;;;;;;;32.43;38.68;99816.28;4960840;28;20074;-72
2022/08/18 18:16:17;;;;;;;13.95;7.13;;;;;;;32.51;38.49;99815.81;4968728;28;20551;-73
2022/08/18 18:18:44;;;;;;;11.35;7.75;;;;;;;32.48;36.94;99817.81;4968609;28;20027;-73
2022/08/18 18:21:15;;;;;;;18.80;7.47;;;;;;;32.44;36.66;99803.81;4968808;28;20035;-73
2022/08/18 18:23:46;;;;;;;16.23;7.38;;;;;;;32.62;35.76;99815.09;4968358;28;20081;-74
2022/08/18 18:26:33;;;;;;;13.75;7.35;;;;;;;32.71;35.18;99825.19;4968555;28;20111;-70
2022/08/18 18:29:11;;;;;;;13.60;7.18;;;;;;;32.63;35.40;99826.66;4962006;28;20390;-71
2022/08/18 18:31:36;;;;;;;11.93;6.75;;;;;;;32.52;35.44;99822.84;4952298;28;20047;-74
2022/08/18 18:34:14;;;;;;;13.15;6.95;;;;;;;32.62;35.94;99832.94;4949776;28;20033;-73
2022/08/18 18:36:45;;;;;;;11.30;6.78;;;;;;;32.62;35.88;99838.28;4952271;28;20038;-73
2022/08/18 18:39:18;;;;;;;12.45;6.80;;;;;;;32.54;35.99;99831.63;4962919;28;20039;-73
2022/08/18 18:41:44;;;;;;;13.13;6.95;;;;;;;32.34;36.47;99837.41;4944853;28;20063;-72
2022/08/18 18:44:14;;;;;;;10.25;7.13;;;;;;;32.10;36.68;99812.16;4931603;28;20046;-72
2022/08/18 18:46:51;;;;;;;12.60;6.68;;;;;;;32.02;37.30;99825.13;4931720;28;20115;-73
2022/08/18 18:49:27;;;;;;;13.75;6.85;;;;;;;31.95;38.37;99842.47;4928863;28;20044;-73
2022/08/18 18:51:55;;;;;;;11.05;7.15;;;;;;;31.77;39.80;99844.47;4931548;28;20062;-72
2022/08/18 18:54:34;;;;;;;13.40;7.20;;;;;;;31.57;39.86;99851.00;4931305;28;20039;-72
2022/08/18 18:57:03;;;;;;;12.20;7.15;;;;;;;31.59;39.49;99847.31;4932565;28;20020;-72
2022/08/18 18:59:44;;;;;;;11.90;7.90;;;;;;;31.65;40.65;99851.41;4935828;28;20459;-72
2022/08/18 19:02:15;;;;;;;15.65;7.25;;;;;;;31.67;40.19;99860.19;4932159;28;20130;-70
2022/08/18 19:05:19;;;;;;;18.85;10.68;;;;;;;31.59;41.29;99865.09;4937367;28;20032;-72
2022/08/18 19:08:12;;;;;;;11.60;7.78;;;;;;;31.66;40.17;99855.81;4909544;28;20111;-73
2022/08/18 19:11:04;;;;;;;17.42;7.40;;;;;;;31.70;40.89;99876.03;4909554;28;20058;-72
2022/08/18 19:13:36;;;;;;;14.43;7.50;;;;;;;31.49;41.69;99858.63;4910725;28;20720;-74
2022/08/18 19:16:13;;;;;;;21.88;7.50;;;;;;;31.49;42.27;99858.63;4911046;28;20032;-74
2022/08/18 19:18:46;;;;;;;14.85;6.75;;;;;;;31.52;40.31;99877.13;4910650;28;20048;-72
2022/08/18 19:21:18;;;;;;;11.32;6.57;;;;;;;31.57;39.60;99878.53;4910963;28;20034;-73
2022/08/18 19:23:58;;;;;;;14.45;7.03;;;;;;;31.61;40.44;99872.06;4910865;28;20036;-73
2022/08/18 19:26:38;;;;;;;10.27;7.07;;;;;;;31.65;40.45;99870.09;4910071;28;20092;-73
2022/08/18 19:29:09;;;;;;;9.35;7.00;;;;;;;31.55;41.69;99858.25;4910595;28;20043;-73
2022/08/18 19:32:00;;;;;;;9.55;7.00;;;;;;;31.56;40.81;99859.97;4909564;28;20071;-72
2022/08/18 19:34:32;;;;;;;10.85;6.88;;;;;;;31.49;41.26;99863.94;4907939;28;20625;-72
2022/08/18 19:37:22;;;;;;;16.67;7.25;;;;;;;31.55;41.25;99875.09;4910042;28;20119;-71
2022/08/18 19:40:10;;;;;;;12.77;7.30;;;;;;;31.60;40.95;99880.16;4908627;28;20497;-70
2022/08/18 19:42:57;;;;;;;10.13;6.68;;;;;;;31.63;40.91;99874.66;4909345;28;20509;-72
2022/08/18 19:45:39;;;;;;;12.70;6.75;;;;;;;31.35;40.21;99846.97;4925806;28;20031;-76
2022/08/18 19:48:25;;;;;;;11.82;7.00;;;;;;;31.20;40.41;99839.88;4946307;28;20058;-73
2022/08/18 19:51:03;;;;;;;13.45;7.20;;;;;;;31.27;41.96;99882.09;4950743;28;20043;-72
2022/08/18 19:53:44;;;;;;;9.73;6.45;;;;;;;31.06;43.38;99870.00;4950676;28;20073;-69
2022/08/18 19:56:21;;;;;;;12.90;7.10;;;;;;;30.97;44.70;99888.22;4951176;28;20039;-71
2022/08/18 19:59:23;;;;;;;11.05;7.28;;;;;;;30.58;45.20;99878.03;4938902;28;20050;-72
2022/08/18 20:02:16;;;;;;;10.65;6.60;;;;;;;30.32;44.86;99857.22;5008172;28;20417;-73
2022/08/18 20:05:07;;;;;;;16.65;7.82;;;;;;;30.60;43.65;99887.66;5008424;28;20109;-73
2022/08/18 20:08:09;;;;;;;13.10;7.13;;;;;;;30.52;43.55;99884.59;5009370;28;20118;-74
2022/08/18 20:11:04;;;;;;;9.52;7.30;;;;;;;30.45;45.91;99883.16;5009133;28;20060;-77
2022/08/18 20:13:37;;;;;;;12.90;6.80;;;;;;;29.78;44.02;99856.56;5008457;28;20034;-73
2022/08/18 20:16:20;;;;;;;12.32;7.80;;;;;;;29.92;44.72;99895.78;5008500;28;20038;-74
2022/08/18 20:18:48;;;;;;;14.43;7.47;;;;;;;29.78;44.80;99901.78;5008614;28;20084;-73
2022/08/18 20:21:14;;;;;;;13.77;7.78;;;;;;;29.66;45.08;99900.66;5008574;28;20034;-74
2022/08/18 20:23:55;;;;;;;10.98;7.35;;;;;;;29.47;44.55;99920.22;5008523;28;20037;-75
2022/08/18 20:26:38;;;;;;;11.85;7.47;;;;;;;29.39;44.38;99916.22;5007168;28;20033;-74
2022/08/18 20:29:06;;;;;;;12.05;7.40;;;;;;;29.12;44.14;99888.22;5007276;28;20054;-73
2022/08/18 20:31:52;;;;;;;9.73;7.32;;;;;;;29.15;45.20;99916.47;5005043;28;20030;-74
2022/08/18 20:34:24;;;;;;;11.63;7.35;;;;;;;29.00;45.62;99912.78;4929693;28;20089;-73
2022/08/18 20:36:51;;;;;;;13.02;7.57;;;;;;;28.79;46.14;99910.19;4929661;28;20077;-75